Haines Airport Haines US
ICAO: PAHN
IATA:
Category: Medium
Scheduled Services:

Elevation: 15 ft
TransAlt. 18000 ft.

Airport Communications:
ASOS:135.75
ANCHORAGE CNTR:132.3
CTAF:122.9
JUNEAU RDO:122.6
TWEB:24.5

PAHN Zoom In..

If you have problems with the map follow the link
https://www.worldairports.se/pages/airport.php?
ICAO=PAHN

Runways:

(A) RW 08 length 4000 ft width 100 ft
---- / hdg 86

(B) RW 26 length 4000 ft width 100 ft
---- / hdg 266

Location; PAHN
Day. 19 / Time. 13.54 Zulu
* Altimeter: 29.83
* Temperature: 08° c. 46.4°f.
* Wind from: 110° Speed 06 kn.
Dewpoint: 06° c.
Visibility: 10 Statute Miles.
Clouds: Scattered 1800 ft.
Clouds: Broken 6000 ft.
Clouds: Overcast 7500 ft.
Conditions: Light Rain.

PAHN 191354Z AUTO 11006KT 10SM -RA SCT018 BKN060 OVC075 08/06 A2983 RMK AO2 SLP102 P0000 T00780061 TSNO


Wind From 110°
Speed 06 kn.

 
 
jpsmedia.com for Web Design worldairports.se 2018   terms of use